sensor_id;sensor_type;location;lat;lon;timestamp;P1;durP1;ratioP1;P2;durP2;ratioP2
34134;SDS011;20410;55.578;12.968;2023-05-14T00:01:15;6.53;;;3.93;;
34134;SDS011;20410;55.578;12.968;2023-05-14T00:03:40;8.23;;;4.03;;
34134;SDS011;20410;55.578;12.968;2023-05-14T00:06:06;8.70;;;4.20;;
34134;SDS011;20410;55.578;12.968;2023-05-14T00:08:32;6.67;;;3.77;;
34134;SDS011;20410;55.578;12.968;2023-05-14T00:10:58;7.33;;;3.77;;
34134;SDS011;20410;55.578;12.968;2023-05-14T00:13:24;7.93;;;4.03;;
34134;SDS011;20410;55.578;12.968;2023-05-14T00:15:50;6.13;;;3.70;;
34134;SDS011;20410;55.578;12.968;2023-05-14T00:18:16;7.37;;;3.57;;
34134;SDS011;20410;55.578;12.968;2023-05-14T00:20:41;8.77;;;3.90;;
34134;SDS011;20410;55.578;12.968;2023-05-14T00:23:07;7.23;;;3.93;;
34134;SDS011;20410;55.578;12.968;2023-05-14T00:25:33;5.43;;;3.73;;
34134;SDS011;20410;55.578;12.968;2023-05-14T00:27:58;6.87;;;3.87;;
34134;SDS011;20410;55.578;12.968;2023-05-14T00:30:24;10.17;;;4.23;;
34134;SDS011;20410;55.578;12.968;2023-05-14T00:32:49;6.43;;;4.03;;
34134;SDS011;20410;55.578;12.968;2023-05-14T00:35:15;5.63;;;4.00;;
34134;SDS011;20410;55.578;12.968;2023-05-14T00:37:41;7.77;;;3.80;;
34134;SDS011;20410;55.578;12.968;2023-05-14T00:40:06;5.23;;;4.17;;
34134;SDS011;20410;55.578;12.968;2023-05-14T00:42:33;7.40;;;4.20;;
34134;SDS011;20410;55.578;12.968;2023-05-14T00:44:58;6.03;;;4.07;;
34134;SDS011;20410;55.578;12.968;2023-05-14T00:47:24;5.87;;;3.90;;
34134;SDS011;20410;55.578;12.968;2023-05-14T00:49:50;9.27;;;4.00;;
34134;SDS011;20410;55.578;12.968;2023-05-14T00:52:16;6.37;;;4.20;;
34134;SDS011;20410;55.578;12.968;2023-05-14T00:54:43;6.93;;;3.80;;
34134;SDS011;20410;55.578;12.968;2023-05-14T00:57:10;4.50;;;4.07;;
34134;SDS011;20410;55.578;12.968;2023-05-14T00:59:36;6.50;;;3.60;;
34134;SDS011;20410;55.578;12.968;2023-05-14T01:02:04;10.80;;;4.37;;
34134;SDS011;20410;55.578;12.968;2023-05-14T01:04:30;8.00;;;4.03;;
34134;SDS011;20410;55.578;12.968;2023-05-14T01:07:06;6.33;;;3.87;;
34134;SDS011;20410;55.578;12.968;2023-05-14T01:09:53;8.20;;;4.43;;
34134;SDS011;20410;55.578;12.968;2023-05-14T01:12:31;8.00;;;4.10;;
34134;SDS011;20410;55.578;12.968;2023-05-14T01:15:05;8.13;;;3.70;;
34134;SDS011;20410;55.578;12.968;2023-05-14T01:17:45;6.17;;;3.90;;
34134;SDS011;20410;55.578;12.968;2023-05-14T01:20:14;10.57;;;4.73;;
34134;SDS011;20410;55.578;12.968;2023-05-14T01:22:40;5.30;;;4.10;;
34134;SDS011;20410;55.578;12.968;2023-05-14T01:25:06;8.17;;;3.87;;
34134;SDS011;20410;55.578;12.968;2023-05-14T01:27:41;8.03;;;4.37;;
34134;SDS011;20410;55.578;12.968;2023-05-14T01:33:04;8.07;;;4.17;;
34134;SDS011;20410;55.578;12.968;2023-05-14T01:35:31;8.27;;;3.90;;
34134;SDS011;20410;55.578;12.968;2023-05-14T01:37:58;8.07;;;4.50;;
34134;SDS011;20410;55.578;12.968;2023-05-14T01:40:26;7.27;;;4.03;;
34134;SDS011;20410;55.578;12.968;2023-05-14T01:42:52;5.90;;;3.87;;
34134;SDS011;20410;55.578;12.968;2023-05-14T01:45:21;7.17;;;4.23;;
34134;SDS011;20410;55.578;12.968;2023-05-14T01:47:47;4.80;;;3.83;;
34134;SDS011;20410;55.578;12.968;2023-05-14T01:50:13;6.97;;;3.77;;
34134;SDS011;20410;55.578;12.968;2023-05-14T01:52:39;7.67;;;3.63;;
34134;SDS011;20410;55.578;12.968;2023-05-14T01:55:05;6.73;;;3.83;;
34134;SDS011;20410;55.578;12.968;2023-05-14T01:57:30;9.63;;;4.50;;
34134;SDS011;20410;55.578;12.968;2023-05-14T01:59:56;9.90;;;4.67;;
34134;SDS011;20410;55.578;12.968;2023-05-14T02:02:22;6.77;;;4.40;;
34134;SDS011;20410;55.578;12.968;2023-05-14T02:04:48;6.40;;;4.63;;
34134;SDS011;20410;55.578;12.968;2023-05-14T02:07:14;5.70;;;4.40;;
34134;SDS011;20410;55.578;12.968;2023-05-14T02:09:40;6.13;;;4.17;;
34134;SDS011;20410;55.578;12.968;2023-05-14T02:12:06;7.63;;;4.67;;
34134;SDS011;20410;55.578;12.968;2023-05-14T02:14:33;5.63;;;3.60;;
34134;SDS011;20410;55.578;12.968;2023-05-14T02:16:58;7.77;;;4.40;;
34134;SDS011;20410;55.578;12.968;2023-05-14T02:19:24;5.50;;;3.90;;
34134;SDS011;20410;55.578;12.968;2023-05-14T02:21:49;7.47;;;4.37;;
34134;SDS011;20410;55.578;12.968;2023-05-14T02:24:15;7.87;;;4.47;;
34134;SDS011;20410;55.578;12.968;2023-05-14T02:26:41;8.53;;;4.13;;
34134;SDS011;20410;55.578;12.968;2023-05-14T02:29:06;8.97;;;4.80;;
34134;SDS011;20410;55.578;12.968;2023-05-14T02:31:32;6.80;;;4.23;;
34134;SDS011;20410;55.578;12.968;2023-05-14T02:34:00;5.70;;;4.40;;
34134;SDS011;20410;55.578;12.968;2023-05-14T02:36:26;5.80;;;4.23;;
34134;SDS011;20410;55.578;12.968;2023-05-14T02:38:51;6.80;;;3.80;;
34134;SDS011;20410;55.578;12.968;2023-05-14T02:41:17;6.67;;;4.70;;
34134;SDS011;20410;55.578;12.968;2023-05-14T02:43:42;9.83;;;4.40;;
34134;SDS011;20410;55.578;12.968;2023-05-14T02:46:08;6.30;;;4.40;;
34134;SDS011;20410;55.578;12.968;2023-05-14T02:48:34;6.77;;;4.70;;
34134;SDS011;20410;55.578;12.968;2023-05-14T02:50:59;7.97;;;4.13;;
34134;SDS011;20410;55.578;12.968;2023-05-14T02:53:25;8.13;;;4.30;;
34134;SDS011;20410;55.578;12.968;2023-05-14T02:55:50;5.93;;;4.50;;
34134;SDS011;20410;55.578;12.968;2023-05-14T02:58:16;8.43;;;4.67;;
34134;SDS011;20410;55.578;12.968;2023-05-14T03:00:43;5.70;;;4.40;;
34134;SDS011;20410;55.578;12.968;2023-05-14T03:03:08;9.50;;;5.10;;
34134;SDS011;20410;55.578;12.968;2023-05-14T03:05:34;9.43;;;4.50;;
34134;SDS011;20410;55.578;12.968;2023-05-14T03:08:00;9.27;;;4.40;;
34134;SDS011;20410;55.578;12.968;2023-05-14T03:10:25;11.47;;;4.70;;
34134;SDS011;20410;55.578;12.968;2023-05-14T03:12:51;7.90;;;3.97;;
34134;SDS011;20410;55.578;12.968;2023-05-14T03:15:16;6.27;;;4.67;;
34134;SDS011;20410;55.578;12.968;2023-05-14T03:17:42;6.63;;;4.70;;
34134;SDS011;20410;55.578;12.968;2023-05-14T03:20:08;10.20;;;4.40;;
34134;SDS011;20410;55.578;12.968;2023-05-14T03:22:34;9.53;;;4.20;;
34134;SDS011;20410;55.578;12.968;2023-05-14T03:25:00;6.50;;;3.97;;
34134;SDS011;20410;55.578;12.968;2023-05-14T03:27:26;7.53;;;4.50;;
34134;SDS011;20410;55.578;12.968;2023-05-14T03:29:51;10.03;;;4.73;;
34134;SDS011;20410;55.578;12.968;2023-05-14T03:32:17;6.17;;;3.97;;
34134;SDS011;20410;55.578;12.968;2023-05-14T03:34:43;8.00;;;4.10;;
34134;SDS011;20410;55.578;12.968;2023-05-14T03:37:09;8.23;;;4.03;;
34134;SDS011;20410;55.578;12.968;2023-05-14T03:39:34;7.83;;;4.27;;
34134;SDS011;20410;55.578;12.968;2023-05-14T03:42:00;7.93;;;4.57;;
34134;SDS011;20410;55.578;12.968;2023-05-14T03:44:26;7.93;;;4.20;;
34134;SDS011;20410;55.578;12.968;2023-05-14T03:46:51;10.30;;;4.70;;
34134;SDS011;20410;55.578;12.968;2023-05-14T03:49:17;9.57;;;5.23;;
34134;SDS011;20410;55.578;12.968;2023-05-14T03:51:43;8.33;;;4.53;;
34134;SDS011;20410;55.578;12.968;2023-05-14T03:54:09;9.83;;;4.23;;
34134;SDS011;20410;55.578;12.968;2023-05-14T03:56:34;5.30;;;4.37;;
34134;SDS011;20410;55.578;12.968;2023-05-14T03:59:00;6.20;;;4.10;;
34134;SDS011;20410;55.578;12.968;2023-05-14T04:01:26;8.27;;;4.40;;
34134;SDS011;20410;55.578;12.968;2023-05-14T04:03:51;9.43;;;5.60;;
34134;SDS011;20410;55.578;12.968;2023-05-14T04:06:17;5.60;;;4.43;;
34134;SDS011;20410;55.578;12.968;2023-05-14T04:08:43;6.57;;;4.67;;
34134;SDS011;20410;55.578;12.968;2023-05-14T04:11:09;7.27;;;4.50;;
34134;SDS011;20410;55.578;12.968;2023-05-14T04:13:34;7.87;;;4.07;;
34134;SDS011;20410;55.578;12.968;2023-05-14T04:16:00;6.00;;;4.23;;
34134;SDS011;20410;55.578;12.968;2023-05-14T04:18:25;7.77;;;4.20;;
34134;SDS011;20410;55.578;12.968;2023-05-14T04:20:51;7.37;;;4.07;;
34134;SDS011;20410;55.578;12.968;2023-05-14T04:23:17;4.60;;;4.20;;
34134;SDS011;20410;55.578;12.968;2023-05-14T04:25:42;5.20;;;4.20;;
34134;SDS011;20410;55.578;12.968;2023-05-14T04:28:08;8.67;;;4.20;;
34134;SDS011;20410;55.578;12.968;2023-05-14T04:30:33;6.97;;;3.90;;
34134;SDS011;20410;55.578;12.968;2023-05-14T04:32:59;7.40;;;4.13;;
34134;SDS011;20410;55.578;12.968;2023-05-14T04:35:25;8.63;;;4.67;;
34134;SDS011;20410;55.578;12.968;2023-05-14T04:37:50;5.67;;;4.00;;
34134;SDS011;20410;55.578;12.968;2023-05-14T04:40:16;4.60;;;4.00;;
34134;SDS011;20410;55.578;12.968;2023-05-14T04:42:42;6.07;;;3.60;;
34134;SDS011;20410;55.578;12.968;2023-05-14T04:45:08;5.60;;;3.57;;
34134;SDS011;20410;55.578;12.968;2023-05-14T04:47:34;7.57;;;4.37;;
34134;SDS011;20410;55.578;12.968;2023-05-14T04:50:00;6.23;;;4.07;;
34134;SDS011;20410;55.578;12.968;2023-05-14T04:52:26;10.87;;;4.00;;
34134;SDS011;20410;55.578;12.968;2023-05-14T04:54:52;8.90;;;3.72;;
34134;SDS011;20410;55.578;12.968;2023-05-14T04:57:17;5.33;;;3.63;;
34134;SDS011;20410;55.578;12.968;2023-05-14T04:59:43;9.60;;;3.83;;
34134;SDS011;20410;55.578;12.968;2023-05-14T05:02:08;5.93;;;3.63;;
34134;SDS011;20410;55.578;12.968;2023-05-14T05:04:34;6.90;;;3.65;;
34134;SDS011;20410;55.578;12.968;2023-05-14T05:07:00;4.28;;;3.47;;
34134;SDS011;20410;55.578;12.968;2023-05-14T05:09:26;7.05;;;3.55;;
34134;SDS011;20410;55.578;12.968;2023-05-14T05:11:51;7.38;;;3.90;;
34134;SDS011;20410;55.578;12.968;2023-05-14T05:14:17;6.65;;;4.00;;
34134;SDS011;20410;55.578;12.968;2023-05-14T05:16:42;6.63;;;4.03;;
34134;SDS011;20410;55.578;12.968;2023-05-14T05:19:08;6.45;;;3.97;;
34134;SDS011;20410;55.578;12.968;2023-05-14T05:21:34;9.05;;;4.00;;
34134;SDS011;20410;55.578;12.968;2023-05-14T05:24:00;7.57;;;4.25;;
34134;SDS011;20410;55.578;12.968;2023-05-14T05:26:26;10.05;;;3.50;;
34134;SDS011;20410;55.578;12.968;2023-05-14T05:28:52;4.60;;;3.47;;
34134;SDS011;20410;55.578;12.968;2023-05-14T05:31:17;6.72;;;3.72;;
34134;SDS011;20410;55.578;12.968;2023-05-14T05:33:43;8.57;;;3.90;;
34134;SDS011;20410;55.578;12.968;2023-05-14T05:36:08;4.40;;;3.80;;
34134;SDS011;20410;55.578;12.968;2023-05-14T05:38:34;6.18;;;3.72;;
34134;SDS011;20410;55.578;12.968;2023-05-14T05:41:00;6.65;;;4.28;;
34134;SDS011;20410;55.578;12.968;2023-05-14T05:43:25;7.03;;;3.80;;
34134;SDS011;20410;55.578;12.968;2023-05-14T05:45:52;5.30;;;3.60;;
34134;SDS011;20410;55.578;12.968;2023-05-14T05:48:18;5.85;;;3.65;;
34134;SDS011;20410;55.578;12.968;2023-05-14T05:50:45;8.27;;;3.92;;
34134;SDS011;20410;55.578;12.968;2023-05-14T05:53:12;7.13;;;3.60;;
34134;SDS011;20410;55.578;12.968;2023-05-14T05:55:40;6.45;;;3.72;;
34134;SDS011;20410;55.578;12.968;2023-05-14T05:58:06;7.55;;;3.50;;
34134;SDS011;20410;55.578;12.968;2023-05-14T06:00:32;9.80;;;3.55;;
34134;SDS011;20410;55.578;12.968;2023-05-14T06:02:57;6.40;;;4.00;;
34134;SDS011;20410;55.578;12.968;2023-05-14T06:05:23;7.30;;;3.70;;
34134;SDS011;20410;55.578;12.968;2023-05-14T06:07:49;8.80;;;3.70;;
34134;SDS011;20410;55.578;12.968;2023-05-14T06:10:15;9.75;;;3.65;;
34134;SDS011;20410;55.578;12.968;2023-05-14T06:12:40;6.40;;;3.40;;
34134;SDS011;20410;55.578;12.968;2023-05-14T06:15:06;8.93;;;3.60;;
34134;SDS011;20410;55.578;12.968;2023-05-14T06:17:32;6.63;;;3.50;;
34134;SDS011;20410;55.578;12.968;2023-05-14T06:19:57;4.35;;;3.28;;
34134;SDS011;20410;55.578;12.968;2023-05-14T06:22:23;6.80;;;3.42;;
34134;SDS011;20410;55.578;12.968;2023-05-14T06:24:49;7.28;;;3.58;;
34134;SDS011;20410;55.578;12.968;2023-05-14T06:27:14;6.90;;;3.92;;
34134;SDS011;20410;55.578;12.968;2023-05-14T06:29:40;8.48;;;3.45;;
34134;SDS011;20410;55.578;12.968;2023-05-14T06:32:06;6.82;;;3.92;;
34134;SDS011;20410;55.578;12.968;2023-05-14T06:34:31;5.07;;;3.38;;
34134;SDS011;20410;55.578;12.968;2023-05-14T06:36:57;5.35;;;3.58;;
34134;SDS011;20410;55.578;12.968;2023-05-14T06:39:23;9.30;;;4.00;;
34134;SDS011;20410;55.578;12.968;2023-05-14T06:41:49;7.88;;;3.92;;
34134;SDS011;20410;55.578;12.968;2023-05-14T06:44:15;5.80;;;3.30;;
34134;SDS011;20410;55.578;12.968;2023-05-14T06:46:43;4.60;;;3.30;;
34134;SDS011;20410;55.578;12.968;2023-05-14T06:49:08;11.93;;;3.60;;
34134;SDS011;20410;55.578;12.968;2023-05-14T06:51:34;7.05;;;3.33;;
34134;SDS011;20410;55.578;12.968;2023-05-14T06:54:00;8.85;;;3.65;;
34134;SDS011;20410;55.578;12.968;2023-05-14T06:56:25;10.63;;;3.83;;
34134;SDS011;20410;55.578;12.968;2023-05-14T06:58:51;6.03;;;3.58;;
34134;SDS011;20410;55.578;12.968;2023-05-14T07:01:16;5.20;;;3.40;;
34134;SDS011;20410;55.578;12.968;2023-05-14T07:03:42;6.00;;;3.50;;
34134;SDS011;20410;55.578;12.968;2023-05-14T07:06:07;6.90;;;3.55;;
34134;SDS011;20410;55.578;12.968;2023-05-14T07:08:33;6.35;;;3.08;;
34134;SDS011;20410;55.578;12.968;2023-05-14T07:10:59;8.45;;;3.22;;
34134;SDS011;20410;55.578;12.968;2023-05-14T07:13:24;8.63;;;3.20;;
34134;SDS011;20410;55.578;12.968;2023-05-14T07:15:50;5.38;;;3.28;;
34134;SDS011;20410;55.578;12.968;2023-05-14T07:18:17;11.32;;;3.53;;
34134;SDS011;20410;55.578;12.968;2023-05-14T07:20:42;8.68;;;3.42;;
34134;SDS011;20410;55.578;12.968;2023-05-14T07:23:08;7.55;;;3.63;;
34134;SDS011;20410;55.578;12.968;2023-05-14T07:25:33;6.30;;;3.08;;
34134;SDS011;20410;55.578;12.968;2023-05-14T07:27:59;7.18;;;3.20;;
34134;SDS011;20410;55.578;12.968;2023-05-14T07:30:25;5.82;;;3.28;;
34134;SDS011;20410;55.578;12.968;2023-05-14T07:32:50;6.78;;;3.15;;
34134;SDS011;20410;55.578;12.968;2023-05-14T07:35:16;8.90;;;3.72;;
34134;SDS011;20410;55.578;12.968;2023-05-14T07:37:41;5.32;;;3.00;;
34134;SDS011;20410;55.578;12.968;2023-05-14T07:40:07;5.38;;;3.70;;
34134;SDS011;20410;55.578;12.968;2023-05-14T07:42:33;9.40;;;3.75;;
34134;SDS011;20410;55.578;12.968;2023-05-14T07:44:59;5.82;;;3.35;;
34134;SDS011;20410;55.578;12.968;2023-05-14T07:47:25;9.52;;;3.65;;
34134;SDS011;20410;55.578;12.968;2023-05-14T07:49:56;6.75;;;3.50;;
34134;SDS011;20410;55.578;12.968;2023-05-14T07:52:23;6.47;;;3.40;;
34134;SDS011;20410;55.578;12.968;2023-05-14T07:54:49;5.95;;;2.95;;
34134;SDS011;20410;55.578;12.968;2023-05-14T07:57:16;7.50;;;3.58;;
34134;SDS011;20410;55.578;12.968;2023-05-14T07:59:42;7.97;;;3.33;;
34134;SDS011;20410;55.578;12.968;2023-05-14T08:02:07;6.32;;;3.28;;
34134;SDS011;20410;55.578;12.968;2023-05-14T08:04:37;6.60;;;3.72;;
34134;SDS011;20410;55.578;12.968;2023-05-14T08:07:03;7.28;;;3.10;;
34134;SDS011;20410;55.578;12.968;2023-05-14T08:09:29;7.57;;;3.47;;
34134;SDS011;20410;55.578;12.968;2023-05-14T08:11:54;8.75;;;3.63;;
34134;SDS011;20410;55.578;12.968;2023-05-14T08:14:20;7.10;;;3.75;;
34134;SDS011;20410;55.578;12.968;2023-05-14T08:16:46;7.85;;;3.65;;
34134;SDS011;20410;55.578;12.968;2023-05-14T08:19:12;8.43;;;4.05;;
34134;SDS011;20410;55.578;12.968;2023-05-14T08:21:38;4.90;;;3.80;;
34134;SDS011;20410;55.578;12.968;2023-05-14T08:24:04;6.93;;;3.35;;
34134;SDS011;20410;55.578;12.968;2023-05-14T08:26:30;8.48;;;4.00;;
34134;SDS011;20410;55.578;12.968;2023-05-14T08:28:56;9.45;;;4.10;;
34134;SDS011;20410;55.578;12.968;2023-05-14T08:31:21;6.15;;;3.58;;
34134;SDS011;20410;55.578;12.968;2023-05-14T08:33:47;6.53;;;3.80;;
34134;SDS011;20410;55.578;12.968;2023-05-14T08:36:13;6.32;;;3.78;;
34134;SDS011;20410;55.578;12.968;2023-05-14T08:38:38;5.70;;;3.67;;
34134;SDS011;20410;55.578;12.968;2023-05-14T08:41:04;5.28;;;3.75;;
34134;SDS011;20410;55.578;12.968;2023-05-14T08:44:17;6.72;;;3.55;;
34134;SDS011;20410;55.578;12.968;2023-05-14T08:46:36;5.70;;;3.50;;
34134;SDS011;20410;55.578;12.968;2023-05-14T08:51:37;14.70;;;4.85;;
34134;SDS011;20410;55.578;12.968;2023-05-14T08:54:04;7.75;;;4.10;;
34134;SDS011;20410;55.578;12.968;2023-05-14T08:56:31;7.60;;;4.13;;
34134;SDS011;20410;55.578;12.968;2023-05-14T08:58:57;6.97;;;4.40;;
34134;SDS011;20410;55.578;12.968;2023-05-14T09:01:23;5.28;;;3.75;;
34134;SDS011;20410;55.578;12.968;2023-05-14T09:03:49;6.75;;;3.80;;
34134;SDS011;20410;55.578;12.968;2023-05-14T09:06:17;8.73;;;3.95;;
34134;SDS011;20410;55.578;12.968;2023-05-14T09:08:44;9.25;;;3.80;;
34134;SDS011;20410;55.578;12.968;2023-05-14T09:11:10;5.43;;;3.80;;
34134;SDS011;20410;55.578;12.968;2023-05-14T09:13:37;6.75;;;3.80;;
34134;SDS011;20410;55.578;12.968;2023-05-14T09:16:02;8.82;;;3.92;;
34134;SDS011;20410;55.578;12.968;2023-05-14T09:18:28;11.63;;;4.30;;
34134;SDS011;20410;55.578;12.968;2023-05-14T09:20:54;8.70;;;4.22;;
34134;SDS011;20410;55.578;12.968;2023-05-14T09:23:20;8.65;;;4.03;;
34134;SDS011;20410;55.578;12.968;2023-05-14T09:25:46;7.35;;;3.90;;
34134;SDS011;20410;55.578;12.968;2023-05-14T09:28:15;9.48;;;3.88;;
34134;SDS011;20410;55.578;12.968;2023-05-14T09:30:45;7.03;;;4.03;;
34134;SDS011;20410;55.578;12.968;2023-05-14T09:33:24;9.20;;;4.20;;
34134;SDS011;20410;55.578;12.968;2023-05-14T09:35:53;10.13;;;3.83;;
34134;SDS011;20410;55.578;12.968;2023-05-14T09:38:26;5.57;;;3.50;;
34134;SDS011;20410;55.578;12.968;2023-05-14T09:40:53;5.72;;;3.58;;
34134;SDS011;20410;55.578;12.968;2023-05-14T09:43:20;7.13;;;3.83;;
34134;SDS011;20410;55.578;12.968;2023-05-14T09:45:45;4.75;;;3.50;;
34134;SDS011;20410;55.578;12.968;2023-05-14T09:48:11;4.75;;;3.33;;
34134;SDS011;20410;55.578;12.968;2023-05-14T09:50:40;6.50;;;3.55;;
34134;SDS011;20410;55.578;12.968;2023-05-14T09:53:07;4.20;;;2.90;;
34134;SDS011;20410;55.578;12.968;2023-05-14T09:55:32;5.95;;;3.33;;
34134;SDS011;20410;55.578;12.968;2023-05-14T09:57:59;6.45;;;3.53;;
34134;SDS011;20410;55.578;12.968;2023-05-14T10:00:25;9.57;;;3.70;;
34134;SDS011;20410;55.578;12.968;2023-05-14T10:02:51;5.75;;;3.08;;
34134;SDS011;20410;55.578;12.968;2023-05-14T10:05:17;7.28;;;2.80;;
34134;SDS011;20410;55.578;12.968;2023-05-14T10:07:48;4.55;;;3.30;;
34134;SDS011;20410;55.578;12.968;2023-05-14T10:10:17;5.35;;;3.05;;
34134;SDS011;20410;55.578;12.968;2023-05-14T10:13:30;5.95;;;2.88;;
34134;SDS011;20410;55.578;12.968;2023-05-14T10:15:37;8.50;;;4.28;;
34134;SDS011;20410;55.578;12.968;2023-05-14T10:18:11;8.35;;;4.38;;
34134;SDS011;20410;55.578;12.968;2023-05-14T10:20:38;5.63;;;3.90;;
34134;SDS011;20410;55.578;12.968;2023-05-14T10:23:05;10.98;;;4.47;;
34134;SDS011;20410;55.578;12.968;2023-05-14T10:25:34;7.82;;;4.00;;
34134;SDS011;20410;55.578;12.968;2023-05-14T10:28:01;7.47;;;4.30;;
34134;SDS011;20410;55.578;12.968;2023-05-14T10:30:27;8.30;;;3.97;;
34134;SDS011;20410;55.578;12.968;2023-05-14T10:33:06;10.40;;;3.70;;
34134;SDS011;20410;55.578;12.968;2023-05-14T10:35:49;6.50;;;3.67;;
34134;SDS011;20410;55.578;12.968;2023-05-14T10:38:16;8.23;;;5.05;;
34134;SDS011;20410;55.578;12.968;2023-05-14T10:40:42;6.72;;;3.53;;
34134;SDS011;20410;55.578;12.968;2023-05-14T10:43:07;7.75;;;3.67;;
34134;SDS011;20410;55.578;12.968;2023-05-14T10:45:35;6.07;;;3.90;;
34134;SDS011;20410;55.578;12.968;2023-05-14T10:48:01;11.48;;;4.00;;
34134;SDS011;20410;55.578;12.968;2023-05-14T10:50:26;7.40;;;3.70;;
34134;SDS011;20410;55.578;12.968;2023-05-14T10:52:54;7.43;;;4.40;;
34134;SDS011;20410;55.578;12.968;2023-05-14T10:55:21;7.00;;;3.83;;
34134;SDS011;20410;55.578;12.968;2023-05-14T10:57:47;8.27;;;3.30;;
34134;SDS011;20410;55.578;12.968;2023-05-14T11:00:13;4.75;;;3.90;;
34134;SDS011;20410;55.578;12.968;2023-05-14T11:02:40;11.15;;;4.10;;
34134;SDS011;20410;55.578;12.968;2023-05-14T11:05:08;6.03;;;3.22;;
34134;SDS011;20410;55.578;12.968;2023-05-14T11:07:38;9.00;;;4.07;;
34134;SDS011;20410;55.578;12.968;2023-05-14T11:12:35;8.50;;;3.42;;
34134;SDS011;20410;55.578;12.968;2023-05-14T11:15:03;7.70;;;3.70;;
34134;SDS011;20410;55.578;12.968;2023-05-14T11:17:33;5.22;;;3.08;;
34134;SDS011;20410;55.578;12.968;2023-05-14T11:20:00;7.32;;;3.13;;
34134;SDS011;20410;55.578;12.968;2023-05-14T11:22:26;6.20;;;3.65;;
34134;SDS011;20410;55.578;12.968;2023-05-14T11:24:52;7.13;;;3.55;;
34134;SDS011;20410;55.578;12.968;2023-05-14T11:27:19;7.18;;;3.20;;
34134;SDS011;20410;55.578;12.968;2023-05-14T11:29:46;5.38;;;3.75;;
34134;SDS011;20410;55.578;12.968;2023-05-14T11:32:13;10.48;;;4.10;;
34134;SDS011;20410;55.578;12.968;2023-05-14T11:34:40;6.57;;;3.45;;
34134;SDS011;20410;55.578;12.968;2023-05-14T11:37:08;7.00;;;3.47;;
34134;SDS011;20410;55.578;12.968;2023-05-14T11:39:35;5.68;;;3.42;;
34134;SDS011;20410;55.578;12.968;2023-05-14T11:42:02;5.88;;;3.10;;
34134;SDS011;20410;55.578;12.968;2023-05-14T11:44:29;5.25;;;3.50;;
34134;SDS011;20410;55.578;12.968;2023-05-14T11:46:56;7.32;;;3.70;;
34134;SDS011;20410;55.578;12.968;2023-05-14T11:49:23;5.07;;;3.70;;
34134;SDS011;20410;55.578;12.968;2023-05-14T11:51:59;7.85;;;3.50;;
34134;SDS011;20410;55.578;12.968;2023-05-14T11:54:28;6.18;;;3.50;;
34134;SDS011;20410;55.578;12.968;2023-05-14T11:56:55;3.78;;;2.92;;
34134;SDS011;20410;55.578;12.968;2023-05-14T11:59:25;6.10;;;3.03;;
34134;SDS011;20410;55.578;12.968;2023-05-14T12:01:52;7.30;;;3.22;;
34134;SDS011;20410;55.578;12.968;2023-05-14T12:04:18;4.55;;;2.95;;
34134;SDS011;20410;55.578;12.968;2023-05-14T12:06:47;4.75;;;3.33;;
34134;SDS011;20410;55.578;12.968;2023-05-14T12:09:20;7.00;;;3.30;;
34134;SDS011;20410;55.578;12.968;2023-05-14T12:11:47;3.63;;;2.78;;
34134;SDS011;20410;55.578;12.968;2023-05-14T12:14:18;9.10;;;2.72;;
34134;SDS011;20410;55.578;12.968;2023-05-14T12:16:48;6.18;;;2.85;;
34134;SDS011;20410;55.578;12.968;2023-05-14T12:19:15;4.45;;;2.72;;
34134;SDS011;20410;55.578;12.968;2023-05-14T12:21:43;4.35;;;2.80;;
34134;SDS011;20410;55.578;12.968;2023-05-14T12:24:10;5.60;;;2.85;;
34134;SDS011;20410;55.578;12.968;2023-05-14T12:26:46;9.90;;;2.70;;
34134;SDS011;20410;55.578;12.968;2023-05-14T12:29:14;4.30;;;2.70;;
34134;SDS011;20410;55.578;12.968;2023-05-14T12:31:47;8.80;;;3.20;;
34134;SDS011;20410;55.578;12.968;2023-05-14T12:34:14;7.18;;;2.60;;
34134;SDS011;20410;55.578;12.968;2023-05-14T12:36:40;3.17;;;2.70;;
34134;SDS011;20410;55.578;12.968;2023-05-14T12:39:06;4.88;;;2.50;;
34134;SDS011;20410;55.578;12.968;2023-05-14T12:41:32;5.88;;;2.65;;
34134;SDS011;20410;55.578;12.968;2023-05-14T12:43:58;4.78;;;2.10;;
34134;SDS011;20410;55.578;12.968;2023-05-14T12:46:24;5.80;;;2.50;;
34134;SDS011;20410;55.578;12.968;2023-05-14T12:48:51;9.00;;;2.55;;
34134;SDS011;20410;55.578;12.968;2023-05-14T12:51:20;4.93;;;2.60;;
34134;SDS011;20410;55.578;12.968;2023-05-14T12:53:47;5.63;;;2.65;;
34134;SDS011;20410;55.578;12.968;2023-05-14T12:56:13;8.02;;;2.85;;
34134;SDS011;20410;55.578;12.968;2023-05-14T12:58:39;3.33;;;2.20;;
34134;SDS011;20410;55.578;12.968;2023-05-14T13:01:05;4.00;;;2.25;;
34134;SDS011;20410;55.578;12.968;2023-05-14T13:03:30;5.10;;;2.47;;
34134;SDS011;20410;55.578;12.968;2023-05-14T13:05:56;2.50;;;2.15;;
34134;SDS011;20410;55.578;12.968;2023-05-14T13:08:22;6.50;;;2.10;;
34134;SDS011;20410;55.578;12.968;2023-05-14T13:10:54;4.65;;;2.28;;
34134;SDS011;20410;55.578;12.968;2023-05-14T13:13:20;5.22;;;2.40;;
34134;SDS011;20410;55.578;12.968;2023-05-14T13:15:46;7.55;;;2.50;;
34134;SDS011;20410;55.578;12.968;2023-05-14T13:18:13;4.13;;;2.30;;
34134;SDS011;20410;55.578;12.968;2023-05-14T13:20:39;7.78;;;2.67;;
34134;SDS011;20410;55.578;12.968;2023-05-14T13:23:04;4.55;;;2.58;;
34134;SDS011;20410;55.578;12.968;2023-05-14T13:25:30;3.08;;;2.33;;
34134;SDS011;20410;55.578;12.968;2023-05-14T13:27:56;6.55;;;2.42;;
34134;SDS011;20410;55.578;12.968;2023-05-14T13:30:21;6.90;;;2.60;;
34134;SDS011;20410;55.578;12.968;2023-05-14T13:32:47;4.55;;;2.67;;
34134;SDS011;20410;55.578;12.968;2023-05-14T13:35:13;5.95;;;2.60;;
34134;SDS011;20410;55.578;12.968;2023-05-14T13:37:38;4.13;;;2.20;;
34134;SDS011;20410;55.578;12.968;2023-05-14T13:40:05;5.97;;;2.63;;
34134;SDS011;20410;55.578;12.968;2023-05-14T13:42:33;4.50;;;2.15;;
34134;SDS011;20410;55.578;12.968;2023-05-14T13:45:00;3.78;;;2.20;;
34134;SDS011;20410;55.578;12.968;2023-05-14T13:47:25;5.38;;;2.30;;
34134;SDS011;20410;55.578;12.968;2023-05-14T13:49:51;6.57;;;2.22;;
34134;SDS011;20410;55.578;12.968;2023-05-14T13:52:17;3.75;;;2.20;;
34134;SDS011;20410;55.578;12.968;2023-05-14T13:54:43;3.47;;;2.40;;
34134;SDS011;20410;55.578;12.968;2023-05-14T13:57:09;6.03;;;2.50;;
34134;SDS011;20410;55.578;12.968;2023-05-14T13:59:35;5.25;;;2.60;;
34134;SDS011;20410;55.578;12.968;2023-05-14T14:02:00;4.32;;;2.70;;
34134;SDS011;20410;55.578;12.968;2023-05-14T14:04:26;7.88;;;2.65;;
34134;SDS011;20410;55.578;12.968;2023-05-14T14:06:53;2.75;;;1.92;;
34134;SDS011;20410;55.578;12.968;2023-05-14T14:09:19;6.05;;;2.30;;
34134;SDS011;20410;55.578;12.968;2023-05-14T14:11:45;2.50;;;2.10;;
34134;SDS011;20410;55.578;12.968;2023-05-14T14:14:10;6.93;;;2.30;;
34134;SDS011;20410;55.578;12.968;2023-05-14T14:16:36;5.60;;;2.45;;
34134;SDS011;20410;55.578;12.968;2023-05-14T14:19:02;4.60;;;2.42;;
34134;SDS011;20410;55.578;12.968;2023-05-14T14:21:27;4.05;;;2.20;;
34134;SDS011;20410;55.578;12.968;2023-05-14T14:23:53;4.75;;;2.20;;
34134;SDS011;20410;55.578;12.968;2023-05-14T14:26:19;5.28;;;2.30;;
34134;SDS011;20410;55.578;12.968;2023-05-14T14:28:45;7.00;;;2.67;;
34134;SDS011;20410;55.578;12.968;2023-05-14T14:31:11;5.55;;;2.60;;
34134;SDS011;20410;55.578;12.968;2023-05-14T14:33:37;6.80;;;2.58;;
34134;SDS011;20410;55.578;12.968;2023-05-14T14:36:02;7.05;;;2.50;;
34134;SDS011;20410;55.578;12.968;2023-05-14T14:38:28;5.15;;;2.22;;